Juneau International Airport Juneau US
ICAO: PAJN
IATA: JNU
Category: Medium
Scheduled Services:

Elevation: 21 ft
TransAlt. 18000 ft.

Airport Communications:
ATIS:135.2
TWEB:114
ANCHORAGE CNTR:133.9
CTAF:118.7
RDO:122.2
GND:121.9
RDO:122.15
NAT GD OPS:124.65
TWR:118.7
UNICOM:122.95

PAJN Zoom In..

Runways:

(A) RW 08 length 8457 ft width 150 ft
---- / hdg 85

(B) RW 26 length 8457 ft width 150 ft
---- / hdg 265

Location; PAJN
Day. 25 / Time. 09.53 Zulu
* Altimeter: 30.35
* Temperature: 06° c. 42.8°f.
* Wind from: 080° Speed 05 kn.
Dewpoint: 05° c.
Visibility: 10 Statute Miles.
Clouds: Few 1000 ft.
Clouds: Broken 3500 ft.
Clouds: Overcast 4800 ft.

PAJN 250953Z 08005KT 10SM FEW010 BKN035 OVC048 06/05 A3035 RMK AO2 RAE30 SLP276 P0000 T00560050


Wind From 080°
Speed 05 kn.

  YouTube Music Video
 
jpsmedia.com for Web Design  worldairports.se 2018   terms of use